CCM77ZT LFKJ-EBCI
Flight info
| Callsign | CCM77ZT |
|---|---|
| Flight time | 1h 47m |
| Altitude | 34000 |
| Route | LONSU M622 PIGOS DCT BARSO DCT IRMAR DCT KINES DCT VANAS DCT MOBLO DCT UBIMA DCT GILIR DCT PENDU DCT IXILU DCT EPL/N0421F320 DCT ROUSY/N0416F310 M624 DIK/N0420F320 Y37 BATTY |
| Aircraft | A320/M-SDE2E3FGIJ1RWY/HB1 |
Departure
| Time | 2026-04-27 18:15 |
|---|---|
| Airport | Ajaccio Napoléon Bonaparte airport (LFKJ) |
Arrival
| Time | 2026-04-27 20:03 |
|---|---|
| Airport | Brussels South Charleroi Airport (EBCI) |
| Time | Latitude | Longitude | Altitude | Speed | Heading |
|---|---|---|---|---|---|
| 2026-04-27 17:38 | 41.92013 | 8.79611 | 26 ft | 0 kts | 345° |
| 2026-04-27 17:52 | 41.92012 | 8.79611 | 26 ft | 0 kts | 345° |
| 2026-04-27 18:02 | 41.92020 | 8.79609 | 26 ft | 4 kts | 349° |
| 2026-04-27 18:02 | 41.92023 | 8.79628 | 31 ft | 3 kts | 95° |
| 2026-04-27 18:02 | 41.92023 | 8.79678 | 30 ft | 7 kts | 60° |
| 2026-04-27 18:03 | 41.92083 | 8.79721 | 28 ft | 12 kts | 24° |
| 2026-04-27 18:03 | 41.92163 | 8.79772 | 28 ft | 12 kts | 25° |
| 2026-04-27 18:03 | 41.92237 | 8.79818 | 30 ft | 11 kts | 25° |
| 2026-04-27 18:03 | 41.92306 | 8.79861 | 27 ft | 10 kts | 25° |
| 2026-04-27 18:04 | 41.92370 | 8.79899 | 30 ft | 10 kts | 25° |
| 2026-04-27 18:04 | 41.92428 | 8.79936 | 26 ft | 9 kts | 25° |
| 2026-04-27 18:04 | 41.92482 | 8.79970 | 30 ft | 8 kts | 25° |
| 2026-04-27 18:04 | 41.92531 | 8.80001 | 29 ft | 7 kts | 25° |
| 2026-04-27 18:05 | 41.92576 | 8.80028 | 27 ft | 7 kts | 24° |
| 2026-04-27 18:05 | 41.92618 | 8.80055 | 27 ft | 7 kts | 25° |
| 2026-04-27 18:05 | 41.92665 | 8.80083 | 26 ft | 7 kts | 24° |
| 2026-04-27 18:05 | 41.92709 | 8.80111 | 25 ft | 6 kts | 27° |
| 2026-04-27 18:06 | 41.92752 | 8.80144 | 26 ft | 8 kts | 31° |
| 2026-04-27 18:06 | 41.92807 | 8.80198 | 27 ft | 11 kts | 40° |
| 2026-04-27 18:06 | 41.92868 | 8.80278 | 27 ft | 12 kts | 46° |
| 2026-04-27 18:06 | 41.92919 | 8.80349 | 29 ft | 9 kts | 46° |
| 2026-04-27 18:07 | 41.92953 | 8.80401 | 30 ft | 6 kts | 56° |
| 2026-04-27 18:07 | 41.92963 | 8.80444 | 31 ft | 4 kts | 84° |
| 2026-04-27 18:07 | 41.92963 | 8.80455 | 31 ft | 0 kts | 89° |
| 2026-04-27 18:12 | 41.92962 | 8.80465 | 31 ft | 7 kts | 97° |
| 2026-04-27 18:12 | 41.92946 | 8.80558 | 31 ft | 10 kts | 79° |
| 2026-04-27 18:12 | 41.92993 | 8.80620 | 31 ft | 9 kts | 24° |
| 2026-04-27 18:12 | 41.93045 | 8.80645 | 30 ft | 7 kts | 9° |
| 2026-04-27 18:13 | 41.93086 | 8.80645 | 32 ft | 5 kts | 359° |
| 2026-04-27 18:13 | 41.93121 | 8.80648 | 31 ft | 5 kts | 5° |
| 2026-04-27 18:13 | 41.93154 | 8.80661 | 30 ft | 5 kts | 45° |
| 2026-04-27 18:13 | 41.93150 | 8.80695 | 31 ft | 4 kts | 121° |
| 2026-04-27 18:14 | 41.93112 | 8.80692 | 32 ft | 5 kts | 205° |
| 2026-04-27 18:14 | 41.93104 | 8.80688 | 31 ft | 3 kts | 203° |
| 2026-04-27 18:14 | 41.92845 | 8.80540 | 31 ft | 79 kts | 205° |
| 2026-04-27 18:14 | 41.92121 | 8.80085 | 25 ft | 140 kts | 205° |
| 2026-04-27 18:15 | 41.91121 | 8.79472 | 220 ft | 167 kts | 205° |
| 2026-04-27 18:15 | 41.90073 | 8.78813 | 864 ft | 166 kts | 206° |
| 2026-04-27 18:15 | 41.89098 | 8.77978 | 1468 ft | 172 kts | 216° |
| 2026-04-27 18:15 | 41.88064 | 8.76998 | 1867 ft | 188 kts | 215° |
| 2026-04-27 18:16 | 41.86978 | 8.75978 | 2436 ft | 193 kts | 215° |
| 2026-04-27 18:16 | 41.85833 | 8.74908 | 2792 ft | 213 kts | 215° |
| 2026-04-27 18:16 | 41.84524 | 8.73692 | 2991 ft | 247 kts | 214° |
| 2026-04-27 18:16 | 41.83060 | 8.72333 | 3012 ft | 261 kts | 214° |
| 2026-04-27 18:17 | 41.81562 | 8.70943 | 3012 ft | 262 kts | 214° |
| 2026-04-27 18:17 | 41.80060 | 8.69551 | 3015 ft | 263 kts | 214° |
| 2026-04-27 18:17 | 41.78540 | 8.68167 | 3613 ft | 269 kts | 214° |
| 2026-04-27 18:17 | 41.76997 | 8.66784 | 4732 ft | 266 kts | 213° |
| 2026-04-27 18:18 | 41.75438 | 8.65391 | 5701 ft | 267 kts | 213° |
| 2026-04-27 18:18 | 41.73888 | 8.64000 | 6604 ft | 270 kts | 214° |
| 2026-04-27 18:18 | 41.72570 | 8.62227 | 7391 ft | 277 kts | 237° |
| 2026-04-27 18:18 | 41.71929 | 8.59753 | 8207 ft | 284 kts | 264° |
| 2026-04-27 18:19 | 41.72174 | 8.57161 | 9008 ft | 290 kts | 290° |
| 2026-04-27 18:19 | 41.73116 | 8.54754 | 9838 ft | 294 kts | 299° |
| 2026-04-27 18:19 | 41.74143 | 8.52352 | 10463 ft | 305 kts | 299° |
| 2026-04-27 18:19 | 41.75238 | 8.49785 | 10713 ft | 328 kts | 299° |
| 2026-04-27 18:20 | 41.76388 | 8.47078 | 11251 ft | 338 kts | 299° |
| 2026-04-27 18:20 | 41.77553 | 8.44315 | 11982 ft | 342 kts | 299° |
| 2026-04-27 18:20 | 41.78724 | 8.41523 | 12756 ft | 345 kts | 299° |
| 2026-04-27 18:20 | 41.79903 | 8.38706 | 13521 ft | 348 kts | 299° |
| 2026-04-27 18:21 | 41.81089 | 8.35872 | 14217 ft | 351 kts | 299° |
| 2026-04-27 18:21 | 41.82467 | 8.33146 | 14841 ft | 356 kts | 311° |
| 2026-04-27 18:21 | 41.84291 | 8.30885 | 15433 ft | 360 kts | 324° |
| 2026-04-27 18:21 | 41.86489 | 8.29232 | 16045 ft | 364 kts | 338° |
| 2026-04-27 18:22 | 41.88931 | 8.28284 | 16669 ft | 368 kts | 348° |
| 2026-04-27 18:22 | 41.91447 | 8.27576 | 17317 ft | 371 kts | 348° |
| 2026-04-27 18:22 | 41.93980 | 8.26856 | 17949 ft | 373 kts | 348° |
| 2026-04-27 18:22 | 41.96536 | 8.26123 | 18546 ft | 377 kts | 348° |
| 2026-04-27 18:23 | 41.99110 | 8.25378 | 19080 ft | 380 kts | 348° |
| 2026-04-27 18:23 | 42.01707 | 8.24622 | 19615 ft | 384 kts | 348° |
| 2026-04-27 18:23 | 42.04323 | 8.23860 | 20148 ft | 387 kts | 348° |
| 2026-04-27 18:23 | 42.06969 | 8.23094 | 20667 ft | 391 kts | 348° |
| 2026-04-27 18:24 | 42.09641 | 8.22321 | 21203 ft | 394 kts | 348° |
| 2026-04-27 18:24 | 42.12328 | 8.21541 | 21775 ft | 396 kts | 348° |
| 2026-04-27 18:24 | 42.15028 | 8.20759 | 22351 ft | 398 kts | 348° |
| 2026-04-27 18:24 | 42.17745 | 8.19973 | 22882 ft | 401 kts | 348° |
| 2026-04-27 18:25 | 42.20482 | 8.19177 | 23403 ft | 404 kts | 348° |
| 2026-04-27 18:25 | 42.23241 | 8.18370 | 23869 ft | 407 kts | 348° |
| 2026-04-27 18:25 | 42.26017 | 8.17559 | 24307 ft | 409 kts | 348° |
| 2026-04-27 18:25 | 42.28812 | 8.16745 | 24758 ft | 411 kts | 348° |
| 2026-04-27 18:26 | 42.31567 | 8.15942 | 25190 ft | 412 kts | 348° |
| 2026-04-27 18:26 | 42.34377 | 8.15121 | 25631 ft | 413 kts | 348° |
| 2026-04-27 18:26 | 42.37187 | 8.14302 | 26071 ft | 414 kts | 348° |
| 2026-04-27 18:26 | 42.40002 | 8.13480 | 26483 ft | 415 kts | 348° |
| 2026-04-27 18:27 | 42.42829 | 8.12650 | 26884 ft | 416 kts | 348° |
| 2026-04-27 18:27 | 42.45667 | 8.11815 | 27282 ft | 418 kts | 349° |
| 2026-04-27 18:27 | 42.48511 | 8.10981 | 27669 ft | 420 kts | 349° |
| 2026-04-27 18:27 | 42.51367 | 8.10147 | 28050 ft | 421 kts | 349° |
| 2026-04-27 18:28 | 42.53309 | 8.09581 | 28308 ft | 422 kts | 349° |
| 2026-04-27 18:28 | 42.56189 | 8.08742 | 28683 ft | 424 kts | 349° |
| 2026-04-27 18:28 | 42.59073 | 8.07900 | 29037 ft | 425 kts | 349° |
| 2026-04-27 18:28 | 42.61933 | 8.07059 | 29383 ft | 427 kts | 349° |
| 2026-04-27 18:29 | 42.64873 | 8.06192 | 29731 ft | 428 kts | 349° |
| 2026-04-27 18:29 | 42.67791 | 8.05327 | 30059 ft | 430 kts | 349° |
| 2026-04-27 18:29 | 42.70721 | 8.04457 | 30344 ft | 431 kts | 349° |
| 2026-04-27 18:29 | 42.73654 | 8.03587 | 30611 ft | 433 kts | 349° |
| 2026-04-27 18:30 | 42.76587 | 8.02614 | 30877 ft | 434 kts | 343° |
| 2026-04-27 18:30 | 42.79404 | 8.01091 | 31137 ft | 437 kts | 335° |
| 2026-04-27 18:30 | 42.82077 | 7.99094 | 31377 ft | 439 kts | 332° |
| 2026-04-27 18:30 | 42.84740 | 7.97064 | 31659 ft | 439 kts | 332° |
| 2026-04-27 18:31 | 42.87364 | 7.95062 | 31994 ft | 437 kts | 332° |
| 2026-04-27 18:31 | 42.90016 | 7.93041 | 32336 ft | 436 kts | 332° |
| 2026-04-27 18:31 | 42.92661 | 7.91028 | 32673 ft | 435 kts | 332° |
| 2026-04-27 18:31 | 42.95303 | 7.89017 | 33009 ft | 434 kts | 332° |
| 2026-04-27 18:32 | 42.97931 | 7.87020 | 33361 ft | 432 kts | 332° |
| 2026-04-27 18:32 | 43.00558 | 7.85027 | 33721 ft | 431 kts | 332° |
| 2026-04-27 18:32 | 43.03172 | 7.83039 | 34041 ft | 430 kts | 332° |
| 2026-04-27 18:32 | 43.05772 | 7.81056 | 34117 ft | 424 kts | 332° |
| 2026-04-27 18:33 | 43.10860 | 7.77157 | 34109 ft | 417 kts | 332° |
| 2026-04-27 18:33 | 43.15897 | 7.73251 | 34116 ft | 416 kts | 332° |
| 2026-04-27 18:34 | 43.20922 | 7.69344 | 34118 ft | 415 kts | 331° |
| 2026-04-27 18:34 | 43.25945 | 7.65447 | 34116 ft | 414 kts | 331° |
| 2026-04-27 18:35 | 43.30961 | 7.61548 | 34104 ft | 414 kts | 331° |
| 2026-04-27 18:35 | 43.35976 | 7.57653 | 34098 ft | 414 kts | 331° |
| 2026-04-27 18:36 | 43.40992 | 7.53747 | 34099 ft | 415 kts | 330° |
| 2026-04-27 18:36 | 43.46018 | 7.49830 | 34104 ft | 415 kts | 330° |
| 2026-04-27 18:37 | 43.51049 | 7.45897 | 34106 ft | 416 kts | 330° |
| 2026-04-27 18:37 | 43.56038 | 7.41991 | 34108 ft | 416 kts | 330° |
| 2026-04-27 18:38 | 43.61090 | 7.38025 | 34098 ft | 416 kts | 330° |
| 2026-04-27 18:38 | 43.66043 | 7.33868 | 34097 ft | 417 kts | 327° |
| 2026-04-27 18:39 | 43.70814 | 7.29404 | 34101 ft | 417 kts | 325° |
| 2026-04-27 18:39 | 43.75607 | 7.24874 | 34102 ft | 417 kts | 326° |
| 2026-04-27 18:40 | 43.80434 | 7.20409 | 34110 ft | 418 kts | 326° |
| 2026-04-27 18:40 | 43.85284 | 7.15975 | 34103 ft | 417 kts | 326° |
| 2026-04-27 18:41 | 43.90130 | 7.11532 | 34104 ft | 417 kts | 326° |
| 2026-04-27 18:41 | 43.94957 | 7.07075 | 34108 ft | 417 kts | 326° |
| 2026-04-27 18:42 | 43.98974 | 7.03355 | 34108 ft | 418 kts | 326° |
| 2026-04-27 18:42 | 44.04619 | 6.98114 | 34126 ft | 418 kts | 326° |
| 2026-04-27 18:43 | 44.09446 | 6.93621 | 34129 ft | 417 kts | 326° |
| 2026-04-27 18:43 | 44.14513 | 6.89716 | 34126 ft | 418 kts | 340° |
| 2026-04-27 18:44 | 44.20209 | 6.88168 | 34122 ft | 419 kts | 353° |
| 2026-04-27 18:44 | 44.26001 | 6.87308 | 34123 ft | 418 kts | 352° |
| 2026-04-27 18:45 | 44.31791 | 6.86419 | 34129 ft | 418 kts | 352° |
| 2026-04-27 18:45 | 44.37578 | 6.85533 | 34130 ft | 419 kts | 353° |
| 2026-04-27 18:46 | 44.43364 | 6.84648 | 34129 ft | 419 kts | 352° |
| 2026-04-27 18:46 | 44.49163 | 6.83770 | 34124 ft | 419 kts | 352° |
| 2026-04-27 18:47 | 44.54964 | 6.82888 | 34128 ft | 419 kts | 352° |
| 2026-04-27 18:47 | 44.60771 | 6.82001 | 34123 ft | 419 kts | 352° |
| 2026-04-27 18:48 | 44.66573 | 6.81113 | 34123 ft | 420 kts | 352° |
| 2026-04-27 18:48 | 44.72366 | 6.80218 | 34123 ft | 420 kts | 352° |
| 2026-04-27 18:49 | 44.78145 | 6.79324 | 34122 ft | 420 kts | 352° |
| 2026-04-27 18:49 | 44.83968 | 6.78597 | 34124 ft | 421 kts | 354° |
| 2026-04-27 18:50 | 44.89817 | 6.78274 | 34126 ft | 421 kts | 356° |
| 2026-04-27 18:50 | 44.95709 | 6.78004 | 34125 ft | 420 kts | 355° |
| 2026-04-27 18:51 | 45.01509 | 6.77664 | 34134 ft | 420 kts | 355° |
| 2026-04-27 18:51 | 45.07345 | 6.77271 | 34130 ft | 420 kts | 354° |
| 2026-04-27 18:52 | 45.13188 | 6.76867 | 34140 ft | 420 kts | 355° |
| 2026-04-27 18:53 | 45.21940 | 6.76272 | 34143 ft | 420 kts | 354° |
| 2026-04-27 18:53 | 45.27772 | 6.75879 | 34131 ft | 419 kts | 354° |
| 2026-04-27 18:54 | 45.33606 | 6.75497 | 34130 ft | 420 kts | 354° |
| 2026-04-27 18:54 | 45.39440 | 6.75111 | 34138 ft | 420 kts | 354° |
| 2026-04-27 18:55 | 45.45402 | 6.74709 | 34138 ft | 420 kts | 354° |
| 2026-04-27 18:55 | 45.51103 | 6.74326 | 34135 ft | 419 kts | 354° |
| 2026-04-27 18:56 | 45.56929 | 6.73918 | 34133 ft | 419 kts | 354° |
| 2026-04-27 18:56 | 45.62755 | 6.73517 | 34147 ft | 419 kts | 353° |
| 2026-04-27 18:57 | 45.68565 | 6.73127 | 34136 ft | 418 kts | 353° |
| 2026-04-27 18:57 | 45.74377 | 6.72734 | 34131 ft | 418 kts | 354° |
| 2026-04-27 18:58 | 45.80184 | 6.72332 | 34133 ft | 418 kts | 353° |
| 2026-04-27 18:58 | 45.85999 | 6.71924 | 34123 ft | 418 kts | 353° |
| 2026-04-27 18:59 | 45.91805 | 6.71521 | 34098 ft | 418 kts | 353° |
| 2026-04-27 18:59 | 45.97626 | 6.71125 | 34105 ft | 419 kts | 353° |
| 2026-04-27 19:00 | 46.03421 | 6.70733 | 34098 ft | 420 kts | 353° |
| 2026-04-27 19:00 | 46.09261 | 6.70331 | 34095 ft | 421 kts | 353° |
| 2026-04-27 19:01 | 46.14971 | 6.68999 | 34084 ft | 413 kts | 338° |
| 2026-04-27 19:01 | 46.20415 | 6.66349 | 34094 ft | 412 kts | 337° |
| 2026-04-27 19:02 | 46.25854 | 6.63692 | 34087 ft | 413 kts | 337° |
| 2026-04-27 19:02 | 46.31303 | 6.61040 | 34082 ft | 413 kts | 337° |
| 2026-04-27 19:03 | 46.36784 | 6.58378 | 34080 ft | 413 kts | 337° |
| 2026-04-27 19:03 | 46.42227 | 6.55717 | 34086 ft | 412 kts | 337° |
| 2026-04-27 19:04 | 46.47620 | 6.53066 | 34087 ft | 412 kts | 337° |
| 2026-04-27 19:04 | 46.53050 | 6.50400 | 34083 ft | 412 kts | 337° |
| 2026-04-27 19:05 | 46.58472 | 6.47731 | 34086 ft | 412 kts | 337° |
| 2026-04-27 19:05 | 46.63906 | 6.45050 | 34082 ft | 412 kts | 336° |
| 2026-04-27 19:06 | 46.69344 | 6.42370 | 34081 ft | 413 kts | 336° |
| 2026-04-27 19:06 | 46.74789 | 6.39667 | 34083 ft | 414 kts | 336° |
| 2026-04-27 19:07 | 46.80241 | 6.36954 | 34108 ft | 414 kts | 336° |
| 2026-04-27 19:07 | 46.85691 | 6.34238 | 34115 ft | 413 kts | 336° |
| 2026-04-27 19:08 | 46.91131 | 6.31521 | 34113 ft | 413 kts | 336° |
| 2026-04-27 19:08 | 46.96574 | 6.28812 | 34110 ft | 413 kts | 336° |
| 2026-04-27 19:09 | 47.02016 | 6.26102 | 34110 ft | 413 kts | 336° |
| 2026-04-27 19:09 | 47.07375 | 6.23194 | 34118 ft | 408 kts | 329° |
| 2026-04-27 19:10 | 47.12455 | 6.19530 | 34109 ft | 407 kts | 329° |
| 2026-04-27 19:10 | 47.17542 | 6.15848 | 34100 ft | 407 kts | 328° |
| 2026-04-27 19:11 | 47.22625 | 6.12166 | 34114 ft | 407 kts | 328° |
| 2026-04-27 19:11 | 47.27702 | 6.08482 | 34107 ft | 407 kts | 328° |
| 2026-04-27 19:12 | 47.32817 | 6.04911 | 34105 ft | 410 kts | 334° |
| 2026-04-27 19:12 | 47.38496 | 6.03338 | 34093 ft | 425 kts | 354° |
| 2026-04-27 19:13 | 47.43383 | 6.03459 | 34088 ft | 426 kts | 354° |
| 2026-04-27 19:13 | 47.49337 | 6.03586 | 34092 ft | 426 kts | 354° |
| 2026-04-27 19:14 | 47.55261 | 6.03713 | 34092 ft | 426 kts | 354° |
| 2026-04-27 19:14 | 47.61187 | 6.03848 | 34089 ft | 426 kts | 354° |
| 2026-04-27 19:15 | 47.67114 | 6.03986 | 34113 ft | 426 kts | 353° |
| 2026-04-27 19:15 | 47.73038 | 6.04117 | 34110 ft | 425 kts | 353° |
| 2026-04-27 19:16 | 47.78951 | 6.04273 | 34106 ft | 425 kts | 354° |
| 2026-04-27 19:16 | 47.84864 | 6.04469 | 34102 ft | 425 kts | 354° |
| 2026-04-27 19:17 | 47.90791 | 6.04669 | 34116 ft | 425 kts | 354° |
| 2026-04-27 19:17 | 47.96709 | 6.04855 | 34111 ft | 425 kts | 354° |
| 2026-04-27 19:18 | 48.02627 | 6.05030 | 34110 ft | 426 kts | 353° |
| 2026-04-27 19:18 | 48.08549 | 6.05207 | 34137 ft | 426 kts | 353° |
| 2026-04-27 19:19 | 48.14483 | 6.05391 | 34126 ft | 426 kts | 353° |
| 2026-04-27 19:19 | 48.20375 | 6.05583 | 34131 ft | 427 kts | 353° |
| 2026-04-27 19:20 | 48.26318 | 6.05777 | 34133 ft | 427 kts | 353° |
| 2026-04-27 19:20 | 48.32259 | 6.05965 | 34154 ft | 427 kts | 353° |
| 2026-04-27 19:21 | 48.38207 | 6.06213 | 34147 ft | 428 kts | 354° |
| 2026-04-27 19:21 | 48.44162 | 6.06504 | 34143 ft | 428 kts | 354° |
| 2026-04-27 19:22 | 48.50118 | 6.06797 | 34158 ft | 429 kts | 353° |
| 2026-04-27 19:22 | 48.56084 | 6.07081 | 34152 ft | 429 kts | 353° |
| 2026-04-27 19:23 | 48.62055 | 6.07356 | 34135 ft | 430 kts | 353° |
| 2026-04-27 19:23 | 48.68041 | 6.07640 | 34128 ft | 431 kts | 353° |
| 2026-04-27 19:24 | 48.74041 | 6.07936 | 34127 ft | 432 kts | 353° |
| 2026-04-27 19:24 | 48.80047 | 6.08227 | 34129 ft | 432 kts | 353° |
| 2026-04-27 19:25 | 48.86045 | 6.08508 | 34134 ft | 432 kts | 353° |
| 2026-04-27 19:25 | 48.92062 | 6.08793 | 34148 ft | 432 kts | 353° |
| 2026-04-27 19:26 | 48.98075 | 6.09080 | 34151 ft | 432 kts | 353° |
| 2026-04-27 19:26 | 49.04081 | 6.09375 | 34145 ft | 433 kts | 353° |
| 2026-04-27 19:27 | 49.10108 | 6.09670 | 34139 ft | 432 kts | 353° |
| 2026-04-27 19:27 | 49.16118 | 6.09967 | 34148 ft | 433 kts | 354° |
| 2026-04-27 19:28 | 49.22138 | 6.10259 | 34143 ft | 432 kts | 353° |
| 2026-04-27 19:28 | 49.28154 | 6.10545 | 34140 ft | 433 kts | 353° |
| 2026-04-27 19:29 | 49.34167 | 6.10839 | 34136 ft | 433 kts | 354° |
| 2026-04-27 19:29 | 49.40189 | 6.11136 | 34159 ft | 433 kts | 354° |
| 2026-04-27 19:30 | 49.46214 | 6.11429 | 34140 ft | 433 kts | 354° |
| 2026-04-27 19:30 | 49.52235 | 6.11701 | 34129 ft | 433 kts | 354° |
| 2026-04-27 19:31 | 49.58258 | 6.11921 | 34129 ft | 433 kts | 354° |
| 2026-04-27 19:31 | 49.64283 | 6.12142 | 34139 ft | 433 kts | 354° |
| 2026-04-27 19:32 | 49.70309 | 6.12371 | 34131 ft | 433 kts | 354° |
| 2026-04-27 19:32 | 49.76328 | 6.12597 | 34131 ft | 433 kts | 354° |
| 2026-04-27 19:33 | 49.82356 | 6.12836 | 34166 ft | 433 kts | 354° |
| 2026-04-27 19:33 | 49.88274 | 6.12248 | 34157 ft | 420 kts | 340° |
| 2026-04-27 19:34 | 49.93954 | 6.10240 | 34156 ft | 418 kts | 340° |
| 2026-04-27 19:34 | 49.99637 | 6.08231 | 34156 ft | 419 kts | 340° |
| 2026-04-27 19:35 | 50.05312 | 6.06224 | 34178 ft | 419 kts | 340° |
| 2026-04-27 19:35 | 50.11001 | 6.04211 | 34177 ft | 419 kts | 340° |
| 2026-04-27 19:36 | 50.16686 | 6.02202 | 34171 ft | 419 kts | 340° |
| 2026-04-27 19:36 | 50.22379 | 6.00179 | 34171 ft | 419 kts | 340° |
| 2026-04-27 19:37 | 50.28065 | 5.98147 | 34198 ft | 419 kts | 339° |
| 2026-04-27 19:37 | 50.33795 | 5.96092 | 34174 ft | 420 kts | 339° |
| 2026-04-27 19:38 | 50.39465 | 5.94063 | 34178 ft | 421 kts | 339° |
| 2026-04-27 19:38 | 50.45168 | 5.92016 | 34171 ft | 421 kts | 339° |
| 2026-04-27 19:39 | 50.50880 | 5.89954 | 34204 ft | 421 kts | 339° |
| 2026-04-27 19:39 | 50.56597 | 5.87895 | 34197 ft | 421 kts | 339° |
| 2026-04-27 19:40 | 50.62007 | 5.84893 | 34197 ft | 404 kts | 322° |
| 2026-04-27 19:40 | 50.64299 | 5.82433 | 33962 ft | 394 kts | 313° |
| 2026-04-27 19:40 | 50.66227 | 5.79456 | 33678 ft | 384 kts | 303° |
| 2026-04-27 19:40 | 50.67754 | 5.76083 | 33319 ft | 372 kts | 294° |
| 2026-04-27 19:41 | 50.68929 | 5.72521 | 32854 ft | 365 kts | 291° |
| 2026-04-27 19:41 | 50.70064 | 5.68963 | 32395 ft | 360 kts | 291° |
| 2026-04-27 19:41 | 50.71185 | 5.65447 | 31934 ft | 356 kts | 291° |
| 2026-04-27 19:41 | 50.72293 | 5.61977 | 31499 ft | 352 kts | 291° |
| 2026-04-27 19:42 | 50.73392 | 5.58544 | 31070 ft | 349 kts | 291° |
| 2026-04-27 19:42 | 50.74484 | 5.55136 | 30637 ft | 346 kts | 290° |
| 2026-04-27 19:42 | 50.75560 | 5.51771 | 30213 ft | 343 kts | 290° |
| 2026-04-27 19:42 | 50.76629 | 5.48417 | 29747 ft | 340 kts | 291° |
| 2026-04-27 19:43 | 50.77681 | 5.45107 | 29344 ft | 335 kts | 291° |
| 2026-04-27 19:43 | 50.78719 | 5.41840 | 28947 ft | 330 kts | 291° |
| 2026-04-27 19:43 | 50.79741 | 5.38617 | 28561 ft | 326 kts | 291° |
| 2026-04-27 19:43 | 50.80750 | 5.35432 | 28187 ft | 321 kts | 291° |
| 2026-04-27 19:44 | 50.81741 | 5.32294 | 27817 ft | 319 kts | 291° |
| 2026-04-27 19:44 | 50.82730 | 5.29158 | 27449 ft | 317 kts | 291° |
| 2026-04-27 19:44 | 50.83710 | 5.26047 | 27072 ft | 317 kts | 291° |
| 2026-04-27 19:44 | 50.84691 | 5.22931 | 26716 ft | 316 kts | 292° |
| 2026-04-27 19:45 | 50.85670 | 5.19822 | 26349 ft | 315 kts | 292° |
| 2026-04-27 19:45 | 50.86645 | 5.16722 | 25989 ft | 314 kts | 292° |
| 2026-04-27 19:45 | 50.87434 | 5.13523 | 25581 ft | 311 kts | 282° |
| 2026-04-27 19:45 | 50.87821 | 5.10187 | 25166 ft | 308 kts | 272° |
| 2026-04-27 19:46 | 50.87964 | 5.06815 | 24746 ft | 307 kts | 272° |
| 2026-04-27 19:46 | 50.88113 | 5.03436 | 24329 ft | 306 kts | 272° |
| 2026-04-27 19:46 | 50.88266 | 5.00089 | 23906 ft | 306 kts | 273° |
| 2026-04-27 19:46 | 50.88418 | 4.96739 | 23429 ft | 305 kts | 273° |
| 2026-04-27 19:47 | 50.88564 | 4.93427 | 22988 ft | 304 kts | 273° |
| 2026-04-27 19:47 | 50.88709 | 4.90090 | 22565 ft | 302 kts | 273° |
| 2026-04-27 19:47 | 50.88855 | 4.86741 | 22145 ft | 301 kts | 273° |
| 2026-04-27 19:47 | 50.88998 | 4.83431 | 21726 ft | 300 kts | 273° |
| 2026-04-27 19:48 | 50.89138 | 4.80197 | 21325 ft | 298 kts | 273° |
| 2026-04-27 19:48 | 50.89280 | 4.76930 | 20916 ft | 297 kts | 273° |
| 2026-04-27 19:48 | 50.89420 | 4.73615 | 20504 ft | 297 kts | 273° |
| 2026-04-27 19:48 | 50.89552 | 4.70404 | 20109 ft | 296 kts | 273° |
| 2026-04-27 19:49 | 50.89684 | 4.67149 | 19698 ft | 296 kts | 273° |
| 2026-04-27 19:49 | 50.89818 | 4.63868 | 19287 ft | 295 kts | 273° |
| 2026-04-27 19:49 | 50.89952 | 4.60614 | 18900 ft | 296 kts | 273° |
| 2026-04-27 19:49 | 50.89853 | 4.57374 | 18497 ft | 296 kts | 259° |
| 2026-04-27 19:50 | 50.89213 | 4.54283 | 18060 ft | 297 kts | 245° |
| 2026-04-27 19:50 | 50.88085 | 4.51579 | 17643 ft | 299 kts | 231° |
| 2026-04-27 19:50 | 50.86528 | 4.49389 | 17228 ft | 302 kts | 219° |
| 2026-04-27 19:50 | 50.84845 | 4.47399 | 16825 ft | 301 kts | 220° |
| 2026-04-27 19:51 | 50.83169 | 4.45412 | 16422 ft | 301 kts | 220° |
| 2026-04-27 19:51 | 50.81499 | 4.43429 | 16025 ft | 301 kts | 219° |
| 2026-04-27 19:51 | 50.79822 | 4.41436 | 15617 ft | 301 kts | 220° |
| 2026-04-27 19:51 | 50.78154 | 4.39455 | 15223 ft | 300 kts | 220° |
| 2026-04-27 19:52 | 50.76481 | 4.37477 | 14828 ft | 300 kts | 219° |
| 2026-04-27 19:52 | 50.75350 | 4.36144 | 14561 ft | 301 kts | 219° |
| 2026-04-27 19:52 | 50.73124 | 4.33522 | 14035 ft | 301 kts | 219° |
| 2026-04-27 19:52 | 50.71332 | 4.31805 | 13602 ft | 305 kts | 205° |
| 2026-04-27 19:53 | 50.67121 | 4.31323 | 12720 ft | 314 kts | 167° |
| 2026-04-27 19:53 | 50.65100 | 4.32679 | 12219 ft | 319 kts | 154° |
| 2026-04-27 19:53 | 50.63148 | 4.34329 | 11924 ft | 313 kts | 154° |
| 2026-04-27 19:54 | 50.61255 | 4.35931 | 11579 ft | 304 kts | 154° |
| 2026-04-27 19:54 | 50.59407 | 4.37489 | 10921 ft | 301 kts | 153° |
| 2026-04-27 19:54 | 50.57575 | 4.39026 | 10316 ft | 296 kts | 153° |
| 2026-04-27 19:54 | 50.55788 | 4.40521 | 9755 ft | 293 kts | 153° |
| 2026-04-27 19:55 | 50.53934 | 4.41950 | 9245 ft | 294 kts | 163° |
| 2026-04-27 19:55 | 50.51942 | 4.42365 | 8802 ft | 290 kts | 186° |
| 2026-04-27 19:55 | 50.50034 | 4.41506 | 8365 ft | 285 kts | 209° |
| 2026-04-27 19:55 | 50.48514 | 4.39557 | 7929 ft | 282 kts | 232° |
| 2026-04-27 19:56 | 50.47592 | 4.36842 | 7398 ft | 281 kts | 257° |
| 2026-04-27 19:56 | 50.47420 | 4.33881 | 7252 ft | 266 kts | 276° |
| 2026-04-27 19:56 | 50.47556 | 4.31054 | 7140 ft | 255 kts | 276° |
| 2026-04-27 19:56 | 50.47627 | 4.29236 | 6959 ft | 251 kts | 272° |
| 2026-04-27 19:57 | 50.47390 | 4.26444 | 6262 ft | 265 kts | 255° |
| 2026-04-27 19:57 | 50.46671 | 4.23727 | 5666 ft | 272 kts | 246° |
| 2026-04-27 19:57 | 50.45844 | 4.21104 | 5448 ft | 262 kts | 238° |
| 2026-04-27 19:57 | 50.44550 | 4.19264 | 5305 ft | 244 kts | 204° |
| 2026-04-27 19:58 | 50.42971 | 4.18808 | 4949 ft | 228 kts | 171° |
| 2026-04-27 19:58 | 50.41505 | 4.19592 | 4406 ft | 222 kts | 149° |
| 2026-04-27 19:58 | 50.40373 | 4.21126 | 4015 ft | 209 kts | 121° |
| 2026-04-27 19:58 | 50.39905 | 4.23176 | 3643 ft | 194 kts | 91° |
| 2026-04-27 19:59 | 50.40112 | 4.25121 | 3336 ft | 173 kts | 66° |
| 2026-04-27 19:59 | 50.40584 | 4.26736 | 3082 ft | 154 kts | 65° |
| 2026-04-27 19:59 | 50.41014 | 4.28211 | 2870 ft | 144 kts | 64° |
| 2026-04-27 19:59 | 50.41425 | 4.29618 | 2633 ft | 140 kts | 64° |
| 2026-04-27 20:00 | 50.41825 | 4.30993 | 2426 ft | 137 kts | 65° |
| 2026-04-27 20:00 | 50.42218 | 4.32340 | 2244 ft | 135 kts | 64° |
| 2026-04-27 20:00 | 50.42608 | 4.33677 | 2075 ft | 135 kts | 63° |
| 2026-04-27 20:00 | 50.42997 | 4.35014 | 1888 ft | 135 kts | 64° |
| 2026-04-27 20:01 | 50.43385 | 4.36350 | 1714 ft | 136 kts | 64° |
| 2026-04-27 20:01 | 50.43778 | 4.37696 | 1527 ft | 136 kts | 64° |
| 2026-04-27 20:01 | 50.44174 | 4.39058 | 1347 ft | 138 kts | 64° |
| 2026-04-27 20:01 | 50.44574 | 4.40435 | 1159 ft | 139 kts | 64° |
| 2026-04-27 20:02 | 50.44981 | 4.41833 | 981 ft | 142 kts | 64° |
| 2026-04-27 20:02 | 50.45392 | 4.43245 | 789 ft | 143 kts | 64° |
| 2026-04-27 20:02 | 50.45795 | 4.44672 | 643 ft | 141 kts | 60° |
| 2026-04-27 20:02 | 50.46152 | 4.45847 | 626 ft | 93 kts | 65° |
| 2026-04-27 20:03 | 50.46348 | 4.46528 | 621 ft | 44 kts | 65° |
| 2026-04-27 20:03 | 50.46436 | 4.46827 | 620 ft | 24 kts | 60° |
| 2026-04-27 20:03 | 50.46535 | 4.46876 | 619 ft | 10 kts | 336° |
| 2026-04-27 20:03 | 50.46562 | 4.46857 | 620 ft | 0 kts | 336° |
| 2026-04-27 20:04 | 50.46567 | 4.46853 | 618 ft | 0 kts | 336° |
| 2026-04-27 20:04 | 50.46581 | 4.46843 | 621 ft | 3 kts | 336° |
| 2026-04-27 20:05 | 50.46595 | 4.46833 | 618 ft | 2 kts | 335° |
| 2026-04-27 20:05 | 50.46605 | 4.46826 | 618 ft | 1 kts | 335° |
| 2026-04-27 20:05 | 50.46610 | 4.46823 | 619 ft | 0 kts | 335° |
| 2026-04-27 20:05 | 50.46620 | 4.46815 | 620 ft | 4 kts | 335° |
| 2026-04-27 20:06 | 50.46664 | 4.46784 | 615 ft | 10 kts | 337° |
| 2026-04-27 20:06 | 50.46728 | 4.46823 | 617 ft | 12 kts | 62° |
| 2026-04-27 20:06 | 50.46756 | 4.46920 | 614 ft | 8 kts | 65° |
| 2026-04-27 20:06 | 50.46778 | 4.46967 | 615 ft | 3 kts | 9° |
| 2026-04-27 20:07 | 50.46795 | 4.46953 | 620 ft | 2 kts | 324° |
| 2026-04-27 20:07 | 50.46809 | 4.46940 | 618 ft | 2 kts | 330° |
| 2026-04-27 20:07 | 50.46821 | 4.46930 | 619 ft | 1 kts | 332° |